Pagrindinis puslapis
METAR-TAF:

METAR-TAF

Oro uostai :

Budapešto Ferenco Listo tarptautinis oro uostas

Budapeštas, Vengrija

platuma: 47-26N, ilguma: 019-16E, Aukštis: 151 m

Dabartinis oras

Ataskaita buvo paskelbta 31 minutes, ne 10:00 UTC
Vėjas 9 kt iš Šiaurės/Šiaurės Vakarų
Temperatūra 5°C
Drėgmė 30%
Slėgis 1025 hPa
Matomumas 10 km arba daugiau
nėra debesų žemiau 1500 m ir nėra kamuolinių lietaus debesų

METAR: LHBP 311000Z 34009KT CAVOK 05/M11 Q1025 NOSIG

Laikas: 12:31 (10:31 UTC)

Prognozė

Ataskaita buvo paskelbta 5 valandos ir 16 minutes, ne 05:15 UTC
Prognozė galioja nuo 31 metu 06 UTC su 01 metu 06 UTC
Vėjas 5 kt iš Šiaurės/Šiaurės Vakarų
Matomumas 10 km arba daugiau
nėra debesų žemiau 1500 m ir nėra kamuolinių lietaus debesų
Tapsmas
nuo 31 metu 08 UTC su 31 metu 10 UTC
Vėjas 7 kt iš Šiaurės Rytų
Tapsmas
nuo 31 metu 22 UTC su 31 metu 24 UTC
Vėjas 3 kt nuo kintamojo kryptimis

TAF: LHBP 310515Z 3106/0106 34005KT CAVOK BECMG 3108/3110 04007KT BECMG 3122/3124 VRB03KT

Orai ataskaitas ir orų prognozės (METAR, TAF).

turimą stotys yra geltonos ir raudonos taškus žemėlapyje.

Perkelti pele per norėdami pamatyti stoties vardą.

Tada spustelėkite, norėdami matyti oro stebėjimo ir prognozės.

Norėdami pakeisti žemėlapį: spustelėkite ant žalios mygtukų su juodo kryžiaus žemyn,; žalią mygtuką su brūkšneliu, jei norite nutolinti; arba žalių rodyklių gretimoms žemėlapius.


METAR-TAF: